Time;durP1;ratioP1;P1;durP2;ratioP2;P2;SDS_P1;SDS_P2;PMS_P1;PMS_P2;Temp;Humidity;BMP_temperature;BMP_pressure;BME280_temperature;BME280_humidity;BME280_pressure;Samples;Min_cycle;Max_cycle;Signal;HPM_P1;HPM_P2
2021/11/19 00:01:28;;;;;;;11.70;9.80;;;6.10;60.80;;;;;;4969255;28;20180;-91
2021/11/19 00:03:54;;;;;;;11.53;9.70;;;6.10;60.90;;;;;;4969024;28;20172;-90
2021/11/19 00:06:20;;;;;;;10.53;9.30;;;6.10;61.20;;;;;;4969277;28;20451;-90
2021/11/19 00:08:47;;;;;;;10.57;9.47;;;6.10;60.90;;;;;;4969257;28;20186;-90
2021/11/19 00:11:16;;;;;;;11.40;10.30;;;6.10;60.70;;;;;;4969890;28;20415;-90
2021/11/19 00:13:42;;;;;;;12.60;9.20;;;6.00;60.80;;;;;;4969621;28;20560;-90
2021/11/19 00:16:09;;;;;;;11.30;10.17;;;5.90;61.30;;;;;;4969318;28;20423;-90
2021/11/19 00:18:35;;;;;;;10.90;9.87;;;5.90;61.10;;;;;;4971265;28;20419;-90
2021/11/19 00:21:01;;;;;;;9.83;8.87;;;5.90;61.60;;;;;;4969267;28;20441;-90
2021/11/19 00:23:27;;;;;;;10.33;8.57;;;5.90;61.90;;;;;;4969297;28;20419;-91
2021/11/19 00:25:54;;;;;;;10.90;9.80;;;5.90;61.60;;;;;;4969791;28;20422;-90
2021/11/19 00:28:20;;;;;;;10.70;9.70;;;6.00;62.20;;;;;;4969101;28;20274;-88
2021/11/19 00:30:46;;;;;;;11.00;9.90;;;6.00;61.50;;;;;;4969446;28;20419;-90
2021/11/19 00:33:13;;;;;;;9.80;8.90;;;5.90;61.10;;;;;;4969890;28;20757;-91
2021/11/19 00:35:40;;;;;;;9.77;8.87;;;5.90;61.40;;;;;;4969020;28;20911;-90
2021/11/19 00:38:08;;;;;;;11.57;9.80;;;5.90;61.40;;;;;;4968166;28;20837;-90
2021/11/19 00:40:41;;;;;;;9.37;8.47;;;5.90;61.10;;;;;;4967587;28;20415;-84
2021/11/19 00:43:07;;;;;;;10.33;9.23;;;5.90;61.10;;;;;;4968313;28;20997;-84
2021/11/19 00:45:34;;;;;;;9.93;8.93;;;5.90;61.10;;;;;;4967703;28;20430;-84
2021/11/19 00:48:01;;;;;;;10.23;9.23;;;5.80;61.60;;;;;;4967414;28;20427;-85
2021/11/19 00:50:31;;;;;;;9.83;8.73;;;5.80;61.60;;;;;;4967366;28;20919;-84
2021/11/19 00:52:57;;;;;;;10.27;8.47;;;5.80;62.10;;;;;;4967464;28;20427;-84
2021/11/19 00:55:23;;;;;;;10.27;9.37;;;5.80;62.30;;;;;;4967064;28;20423;-84
2021/11/19 00:57:49;;;;;;;9.57;8.77;;;5.80;62.40;;;;;;4967421;28;20470;-85
2021/11/19 01:00:19;;;;;;;10.90;9.90;;;5.80;62.10;;;;;;4967682;28;20415;-84
2021/11/19 01:02:45;;;;;;;9.50;8.50;;;5.80;61.70;;;;;;4952085;28;20528;-83
2021/11/19 01:05:11;;;;;;;10.40;9.40;;;5.80;61.90;;;;;;4967275;28;20420;-84
2021/11/19 01:07:36;;;;;;;9.43;8.43;;;5.70;62.00;;;;;;4967063;28;20183;-84
2021/11/19 01:10:17;;;;;;;9.80;8.80;;;5.70;62.20;;;;;;4967745;28;20578;-84
2021/11/19 01:12:44;;;;;;;9.87;8.77;;;5.60;62.70;;;;;;4967300;28;20270;-84
2021/11/19 01:15:34;;;;;;;10.67;8.87;;;5.60;62.30;;;;;;4967198;28;20983;-83
2021/11/19 01:18:09;;;;;;;10.47;9.47;;;5.60;62.20;;;;;;4967579;28;20513;-84
2021/11/19 01:20:39;;;;;;;9.90;8.97;;;5.50;62.10;;;;;;4967010;28;20414;-84
2021/11/19 01:23:10;;;;;;;9.33;8.50;;;5.50;61.90;;;;;;4950605;28;20437;-84
2021/11/19 01:25:38;;;;;;;9.20;8.40;;;5.60;62.00;;;;;;4966732;28;20407;-85
2021/11/19 01:28:04;;;;;;;10.10;9.20;;;5.50;62.40;;;;;;4966117;28;20454;-84
2021/11/19 01:30:44;;;;;;;9.83;8.87;;;5.50;62.60;;;;;;4966934;28;20919;-85
2021/11/19 01:33:10;;;;;;;9.67;8.67;;;5.50;62.10;;;;;;4966953;28;20821;-84
2021/11/19 01:35:36;;;;;;;10.10;9.10;;;5.40;62.70;;;;;;4967978;28;20451;-84
2021/11/19 01:38:03;;;;;;;8.93;8.17;;;5.50;63.20;;;;;;4969098;28;20505;-85
2021/11/19 01:40:32;;;;;;;10.40;9.20;;;5.50;63.10;;;;;;4955025;28;20179;-90
2021/11/19 01:43:02;;;;;;;10.60;9.50;;;5.50;62.80;;;;;;4970941;28;20411;-90
2021/11/19 01:45:34;;;;;;;11.00;9.33;;;5.40;63.00;;;;;;4974769;28;20407;-91
2021/11/19 01:48:03;;;;;;;12.40;10.37;;;5.30;62.30;;;;;;4980072;28;20578;-90
2021/11/19 01:51:07;;;;;;;10.30;9.40;;;5.30;63.40;;;;;;4970832;28;20422;-90
2021/11/19 01:53:40;;;;;;;10.00;8.60;;;5.40;63.10;;;;;;4915776;29;20419;-91
2021/11/19 01:56:08;;;;;;;8.90;8.00;;;5.30;62.40;;;;;;4969422;28;20839;-84
2021/11/19 01:59:18;;;;;;;10.93;9.83;;;5.30;63.10;;;;;;4950415;28;20470;-85
2021/11/19 02:01:49;;;;;;;10.27;9.20;;;5.30;63.10;;;;;;4911000;29;20425;-84
2021/11/19 02:04:20;;;;;;;10.57;9.57;;;5.20;63.60;;;;;;4965958;28;20411;-84
2021/11/19 02:06:56;;;;;;;10.20;9.20;;;5.20;63.50;;;;;;4965968;28;20502;-85
2021/11/19 02:09:39;;;;;;;11.15;9.48;;;5.20;63.10;;;;;;4965541;28;20416;-85
2021/11/19 02:12:18;;;;;;;8.80;7.93;;;5.20;63.40;;;;;;4966424;28;20179;-84
2021/11/19 02:15:05;;;;;;;9.90;9.00;;;5.20;63.30;;;;;;4966206;28;20768;-84
2021/11/19 02:17:32;;;;;;;10.10;9.00;;;5.10;63.40;;;;;;4949768;28;21030;-86
2021/11/19 02:20:08;;;;;;;8.50;7.80;;;5.10;63.60;;;;;;4966072;28;20873;-84
2021/11/19 02:22:43;;;;;;;9.93;9.03;;;5.10;63.70;;;;;;4965811;28;20521;-84
2021/11/19 02:25:09;;;;;;;9.87;8.87;;;5.20;63.20;;;;;;4951515;28;20402;-84
2021/11/19 02:27:51;;;;;;;9.70;8.77;;;5.10;63.00;;;;;;4949969;28;20795;-84
2021/11/19 02:30:27;;;;;;;9.90;9.00;;;5.10;63.10;;;;;;4965986;28;20494;-84
2021/11/19 02:32:59;;;;;;;11.53;10.47;;;5.10;63.80;;;;;;4965927;28;20429;-90
2021/11/19 02:35:35;;;;;;;10.57;9.57;;;5.00;63.90;;;;;;4969268;28;20430;-90
2021/11/19 02:38:10;;;;;;;10.63;9.63;;;5.10;63.70;;;;;;4971890;28;20553;-90
2021/11/19 02:40:40;;;;;;;9.33;8.27;;;5.00;63.30;;;;;;4972273;28;20762;-92
2021/11/19 02:43:10;;;;;;;10.30;9.20;;;5.10;63.50;;;;;;4972216;28;20430;-90
2021/11/19 02:45:43;;;;;;;10.10;9.10;;;5.10;63.80;;;;;;4969735;28;20415;-84
2021/11/19 02:48:18;;;;;;;9.23;8.43;;;5.10;63.30;;;;;;4969531;28;20422;-84
2021/11/19 02:50:44;;;;;;;9.90;9.00;;;5.00;62.90;;;;;;4970047;28;20415;-84
2021/11/19 02:53:11;;;;;;;9.47;8.57;;;5.00;63.90;;;;;;4970480;28;20425;-85
2021/11/19 02:55:41;;;;;;;10.23;9.23;;;5.00;63.70;;;;;;4971171;28;20426;-84
2021/11/19 02:58:11;;;;;;;9.57;8.77;;;5.10;63.90;;;;;;4970855;28;20458;-85
2021/11/19 03:00:54;;;;;;;8.63;7.83;;;5.10;63.70;;;;;;4969004;28;20799;-84
2021/11/19 03:03:20;;;;;;;12.23;9.03;;;5.10;63.50;;;;;;4972954;28;20411;-85
2021/11/19 03:05:46;;;;;;;12.30;9.90;;;5.20;63.40;;;;;;4973047;28;20522;-84
2021/11/19 03:08:12;;;;;;;9.70;8.80;;;5.20;62.80;;;;;;4971797;28;20266;-84
2021/11/19 03:10:46;;;;;;;10.43;9.33;;;5.10;62.70;;;;;;4970189;28;20540;-84
2021/11/19 03:13:16;;;;;;;10.07;9.17;;;5.00;63.30;;;;;;4970464;28;20426;-85
2021/11/19 03:15:45;;;;;;;10.90;8.70;;;5.00;63.10;;;;;;4970086;28;20415;-84
2021/11/19 03:18:13;;;;;;;9.80;8.27;;;5.00;62.60;;;;;;4970124;28;20490;-84
2021/11/19 03:20:40;;;;;;;10.33;8.83;;;4.90;62.80;;;;;;4969902;28;20419;-85
2021/11/19 03:23:06;;;;;;;9.10;8.30;;;4.90;64.40;;;;;;4968820;28;20912;-84
2021/11/19 03:25:37;;;;;;;10.23;8.97;;;4.80;63.90;;;;;;4968928;28;20411;-84
2021/11/19 03:28:05;;;;;;;8.67;7.77;;;4.80;63.80;;;;;;4969119;28;20419;-85
2021/11/19 03:30:31;;;;;;;10.50;9.50;;;4.80;63.80;;;;;;4968876;28;20419;-85
2021/11/19 03:32:57;;;;;;;10.93;8.90;;;4.80;64.20;;;;;;4968822;28;20450;-84
2021/11/19 03:35:25;;;;;;;10.90;9.60;;;4.80;64.20;;;;;;4970146;28;20458;-84
2021/11/19 03:37:53;;;;;;;10.73;9.73;;;4.90;65.30;;;;;;4968684;28;20462;-84
2021/11/19 03:40:23;;;;;;;11.63;9.93;;;4.70;64.00;;;;;;4970652;28;20950;-90
2021/11/19 03:42:50;;;;;;;10.93;9.73;;;4.70;64.40;;;;;;4973160;28;20422;-90
2021/11/19 03:45:21;;;;;;;15.40;9.60;;;4.70;64.40;;;;;;4973343;28;20502;-90
2021/11/19 03:47:49;;;;;;;11.00;9.90;;;4.70;64.40;;;;;;4973131;28;20427;-91
2021/11/19 03:50:22;;;;;;;15.10;10.27;;;4.70;64.20;;;;;;4972848;28;20415;-90
2021/11/19 03:52:48;;;;;;;10.97;9.87;;;4.60;63.60;;;;;;4956364;28;20400;-90
2021/11/19 03:55:18;;;;;;;11.10;10.20;;;4.70;63.80;;;;;;4969994;28;20419;-88
2021/11/19 03:57:45;;;;;;;9.70;8.80;;;4.70;63.70;;;;;;4969122;28;20447;-90
2021/11/19 04:00:18;;;;;;;10.70;9.70;;;4.60;63.30;;;;;;4969191;28;20901;-91
2021/11/19 04:02:44;;;;;;;11.43;10.10;;;4.70;64.00;;;;;;4971091;28;20423;-89
2021/11/19 04:05:11;;;;;;;11.23;10.10;;;4.60;63.40;;;;;;4969313;28;20415;-88
2021/11/19 04:07:36;;;;;;;10.97;9.97;;;4.60;63.70;;;;;;4956107;28;20411;-88
2021/11/19 04:10:05;;;;;;;11.90;10.63;;;4.70;64.10;;;;;;4971831;28;20916;-90
2021/11/19 04:12:30;;;;;;;10.50;9.20;;;4.70;64.20;;;;;;4971984;28;20518;-90
2021/11/19 04:14:56;;;;;;;11.00;10.07;;;4.60;64.30;;;;;;4970910;28;20525;-90
2021/11/19 04:17:22;;;;;;;9.73;8.87;;;4.60;65.80;;;;;;4971022;28;20241;-90
2021/11/19 04:19:48;;;;;;;13.27;9.43;;;4.70;65.20;;;;;;4969357;28;20419;-91
2021/11/19 04:22:17;;;;;;;13.80;10.30;;;4.60;64.50;;;;;;4953597;28;20188;-89
2021/11/19 04:24:53;;;;;;;9.93;9.03;;;4.60;63.90;;;;;;4968426;28;20513;-90
2021/11/19 04:27:20;;;;;;;10.07;9.27;;;4.60;64.60;;;;;;4968553;28;20450;-89
2021/11/19 04:29:46;;;;;;;9.73;8.93;;;4.70;63.90;;;;;;4969205;28;20419;-90
2021/11/19 04:32:12;;;;;;;10.23;9.27;;;4.60;64.20;;;;;;4969352;28;20506;-91
2021/11/19 04:34:40;;;;;;;10.97;9.87;;;4.60;64.10;;;;;;4969309;28;20422;-89
2021/11/19 04:37:05;;;;;;;10.30;9.40;;;4.60;63.80;;;;;;4969126;28;20820;-90
2021/11/19 04:39:31;;;;;;;10.83;9.80;;;4.60;64.40;;;;;;4968636;28;20419;-90
2021/11/19 04:41:57;;;;;;;10.00;9.10;;;4.60;63.60;;;;;;4969314;28;20182;-89
2021/11/19 04:44:23;;;;;;;11.87;10.77;;;4.60;64.00;;;;;;4969132;28;20419;-85
2021/11/19 04:46:49;;;;;;;10.07;9.00;;;4.60;64.50;;;;;;4967518;28;20759;-85
2021/11/19 04:49:16;;;;;;;11.10;10.00;;;4.60;64.70;;;;;;4967359;28;20423;-85
2021/11/19 04:51:43;;;;;;;9.90;9.00;;;4.50;64.90;;;;;;4951042;29;20434;-85
2021/11/19 04:54:10;;;;;;;9.93;9.00;;;4.60;65.40;;;;;;4967505;28;20433;-85
2021/11/19 04:56:41;;;;;;;11.23;10.23;;;4.70;64.80;;;;;;4967655;28;20458;-85
2021/11/19 04:59:07;;;;;;;10.17;9.20;;;4.50;64.20;;;;;;4968320;28;20419;-85
2021/11/19 05:01:36;;;;;;;10.33;9.30;;;4.60;64.40;;;;;;4967633;28;20419;-85
2021/11/19 05:04:03;;;;;;;10.73;9.77;;;4.50;64.70;;;;;;4967966;28;20418;-84
2021/11/19 05:06:29;;;;;;;11.00;10.00;;;4.50;64.40;;;;;;4967961;28;20497;-83
2021/11/19 05:08:54;;;;;;;11.27;10.13;;;4.50;65.00;;;;;;4969612;28;20424;-83
2021/11/19 05:11:32;;;;;;;11.00;9.90;;;4.50;64.50;;;;;;4969544;28;20179;-82
2021/11/19 05:13:59;;;;;;;12.50;10.73;;;4.50;64.70;;;;;;4969972;28;20175;-85
2021/11/19 05:16:25;;;;;;;11.43;10.33;;;4.50;65.70;;;;;;4967048;28;20419;-84
2021/11/19 05:18:51;;;;;;;11.00;10.00;;;4.50;64.70;;;;;;4966261;28;20469;-84
2021/11/19 05:21:19;;;;;;;10.97;9.97;;;4.60;65.40;;;;;;4961523;28;20450;-84
2021/11/19 05:23:45;;;;;;;11.20;10.10;;;4.60;64.70;;;;;;4965138;28;20183;-84
2021/11/19 05:26:12;;;;;;;12.80;9.80;;;4.60;64.70;;;;;;4973300;28;20557;-85
2021/11/19 05:28:38;;;;;;;11.27;10.20;;;4.50;64.90;;;;;;4971943;28;21044;-82
2021/11/19 05:31:05;;;;;;;12.60;10.20;;;4.50;65.10;;;;;;4969500;28;20441;-83
2021/11/19 05:33:33;;;;;;;12.67;10.20;;;4.50;64.40;;;;;;4952134;28;20415;-84
2021/11/19 05:35:58;;;;;;;11.17;10.00;;;4.50;65.30;;;;;;4951885;29;20415;-84
2021/11/19 05:38:25;;;;;;;10.73;9.63;;;4.40;65.30;;;;;;4951457;28;20541;-84
2021/11/19 05:40:52;;;;;;;10.50;9.57;;;4.50;64.90;;;;;;4971424;28;20513;-83
2021/11/19 05:43:17;;;;;;;10.70;9.60;;;4.40;65.80;;;;;;4971023;28;20425;-82
2021/11/19 05:45:43;;;;;;;12.27;11.07;;;4.50;65.20;;;;;;4972519;28;20493;-84
2021/11/19 05:48:09;;;;;;;10.70;9.70;;;4.50;64.80;;;;;;4971465;28;20710;-83
2021/11/19 05:50:39;;;;;;;11.63;10.40;;;4.40;64.90;;;;;;4972031;28;20919;-84
2021/11/19 05:53:07;;;;;;;10.87;9.97;;;4.40;65.30;;;;;;4970774;28;20183;-84
2021/11/19 05:55:36;;;;;;;10.30;9.50;;;4.40;65.70;;;;;;4972013;28;20477;-84
2021/11/19 05:58:03;;;;;;;11.30;10.10;;;4.50;65.30;;;;;;4970978;28;21053;-84
2021/11/19 06:00:38;;;;;;;10.73;9.40;;;4.50;65.40;;;;;;4971063;28;20410;-84
2021/11/19 06:03:04;;;;;;;11.80;10.60;;;4.50;65.70;;;;;;4971758;28;20468;-84
2021/11/19 06:05:31;;;;;;;11.93;10.70;;;4.50;65.00;;;;;;4972937;28;20418;-84
2021/11/19 06:07:58;;;;;;;11.57;10.53;;;4.50;65.50;;;;;;4955121;28;20947;-84
2021/11/19 06:10:28;;;;;;;12.17;10.97;;;4.50;64.60;;;;;;4972476;28;20461;-83
2021/11/19 06:13:10;;;;;;;12.93;11.63;;;4.50;65.10;;;;;;4974498;28;20197;-91
2021/11/19 06:15:40;;;;;;;11.33;10.33;;;4.40;65.00;;;;;;4985661;28;20783;-90
2021/11/19 06:18:09;;;;;;;11.50;10.30;;;4.50;65.20;;;;;;4987645;28;20462;-92
2021/11/19 06:20:45;;;;;;;10.80;9.70;;;4.50;64.70;;;;;;4975568;28;20422;-89
2021/11/19 06:23:16;;;;;;;11.70;10.60;;;4.50;65.00;;;;;;4972809;28;20815;-91
2021/11/19 06:25:43;;;;;;;11.00;9.90;;;4.50;65.50;;;;;;4972241;28;20442;-90
2021/11/19 06:28:13;;;;;;;15.43;10.53;;;4.40;65.20;;;;;;4972463;28;20914;-91
2021/11/19 06:30:39;;;;;;;12.60;11.40;;;4.50;64.80;;;;;;4973029;28;20447;-92
2021/11/19 06:33:05;;;;;;;13.70;11.87;;;4.50;65.50;;;;;;4973195;28;20843;-91
2021/11/19 06:35:32;;;;;;;14.23;11.13;;;4.60;65.10;;;;;;4973285;28;20257;-91
2021/11/19 06:37:59;;;;;;;11.90;10.83;;;4.60;64.70;;;;;;4976394;28;20458;-91
2021/11/19 06:40:29;;;;;;;11.13;10.00;;;4.70;65.10;;;;;;4976762;28;20457;-92
2021/11/19 06:42:57;;;;;;;14.05;11.90;;;4.70;65.30;;;;;;4976700;28;20422;-91
2021/11/19 06:45:27;;;;;;;12.33;10.03;;;4.80;65.80;;;;;;4977121;28;20202;-92
2021/11/19 06:47:53;;;;;;;11.70;10.50;;;4.90;65.40;;;;;;4977003;28;20433;-91
2021/11/19 06:50:22;;;;;;;11.07;9.90;;;4.90;63.90;;;;;;4976961;28;20421;-92
2021/11/19 06:52:49;;;;;;;11.27;10.30;;;4.80;63.40;;;;;;4977322;28;20426;-92
2021/11/19 06:55:15;;;;;;;11.37;9.87;;;4.80;63.90;;;;;;4976762;28;20832;-92
2021/11/19 06:57:42;;;;;;;11.20;10.10;;;4.90;63.60;;;;;;4975626;28;20825;-84
2021/11/19 07:00:12;;;;;;;11.23;10.20;;;5.00;63.50;;;;;;4973845;28;20903;-83
2021/11/19 07:02:38;;;;;;;11.17;10.17;;;5.00;62.60;;;;;;4974020;28;20473;-83
2021/11/19 07:05:05;;;;;;;12.07;10.90;;;4.90;63.10;;;;;;4974719;28;20434;-83
2021/11/19 07:07:31;;;;;;;12.33;11.10;;;4.90;63.60;;;;;;4974212;28;20422;-84
2021/11/19 07:09:57;;;;;;;10.93;9.93;;;5.00;63.20;;;;;;4974413;28;20472;-83
2021/11/19 07:12:23;;;;;;;11.53;10.40;;;5.10;63.00;;;;;;4973815;28;20191;-83
2021/11/19 07:14:48;;;;;;;9.83;8.93;;;5.00;62.60;;;;;;4974544;28;20425;-82
2021/11/19 07:17:15;;;;;;;10.20;9.30;;;5.00;63.30;;;;;;4975578;28;20564;-83
2021/11/19 07:19:41;;;;;;;10.57;9.67;;;5.10;63.40;;;;;;4973988;28;20178;-84
2021/11/19 07:22:07;;;;;;;11.10;10.03;;;5.10;62.70;;;;;;4974487;28;20452;-83
2021/11/19 07:24:35;;;;;;;12.80;10.07;;;5.20;62.80;;;;;;4974270;28;20898;-84
2021/11/19 07:27:01;;;;;;;11.00;9.97;;;5.30;62.50;;;;;;4974578;28;20425;-83
2021/11/19 07:29:27;;;;;;;10.13;9.03;;;5.30;61.90;;;;;;4974172;28;20449;-83
2021/11/19 07:31:53;;;;;;;10.10;9.10;;;5.20;60.80;;;;;;4975619;28;20811;-89
2021/11/19 07:34:19;;;;;;;9.43;8.50;;;5.20;61.00;;;;;;4976161;28;20509;-90
2021/11/19 07:36:45;;;;;;;11.07;9.37;;;5.20;61.10;;;;;;4976708;28;20677;-90
2021/11/19 07:39:11;;;;;;;11.70;10.60;;;5.30;61.80;;;;;;4976820;28;20221;-89
2021/11/19 07:41:37;;;;;;;11.30;9.67;;;5.40;61.60;;;;;;4976597;28;20494;-89
2021/11/19 07:44:04;;;;;;;10.93;9.93;;;5.40;60.90;;;;;;4976436;28;20918;-89
2021/11/19 07:46:37;;;;;;;11.57;10.40;;;5.40;61.30;;;;;;4975192;28;20421;-88
2021/11/19 07:49:04;;;;;;;13.87;10.13;;;5.30;60.90;;;;;;4974099;28;20429;-90
2021/11/19 07:51:37;;;;;;;12.77;10.13;;;5.40;62.20;;;;;;4974950;28;20410;-90
2021/11/19 07:54:04;;;;;;;10.60;9.60;;;5.50;61.80;;;;;;4975831;28;20410;-90
2021/11/19 07:56:32;;;;;;;11.20;10.10;;;5.50;61.10;;;;;;4974364;28;20424;-92
2021/11/19 07:59:01;;;;;;;11.00;9.87;;;5.60;61.60;;;;;;4974615;28;20833;-90
2021/11/19 08:01:27;;;;;;;11.30;10.20;;;5.60;60.90;;;;;;4975958;28;20425;-90
2021/11/19 08:03:53;;;;;;;11.23;9.90;;;5.60;60.80;;;;;;4969315;28;20427;-84
2021/11/19 08:06:22;;;;;;;11.57;10.47;;;5.60;61.80;;;;;;4961648;28;20416;-85
2021/11/19 08:08:49;;;;;;;12.03;10.40;;;5.60;61.00;;;;;;4957098;28;20183;-85
2021/11/19 08:11:16;;;;;;;11.73;10.50;;;5.60;60.10;;;;;;4954745;29;20441;-85
2021/11/19 08:13:43;;;;;;;10.30;9.43;;;5.60;59.70;;;;;;4954884;29;20427;-86
2021/11/19 08:16:09;;;;;;;12.00;9.47;;;5.70;60.00;;;;;;4954883;29;20419;-84
2021/11/19 08:18:42;;;;;;;10.57;9.67;;;5.80;60.10;;;;;;4954653;29;20473;-85
2021/11/19 08:21:09;;;;;;;10.40;9.50;;;5.80;59.60;;;;;;4954671;29;20671;-83
2021/11/19 08:23:40;;;;;;;10.83;9.73;;;5.70;58.60;;;;;;4954512;29;20775;-84
2021/11/19 08:26:31;;;;;;;10.83;9.80;;;5.70;59.80;;;;;;4954501;29;20514;-84
2021/11/19 08:28:58;;;;;;;10.60;9.20;;;5.70;59.70;;;;;;4954280;29;20506;-83
2021/11/19 08:31:26;;;;;;;11.70;10.50;;;5.80;59.30;;;;;;4954670;29;20590;-84
2021/11/19 08:33:52;;;;;;;11.27;10.10;;;5.80;58.90;;;;;;4954461;29;20419;-84
2021/11/19 08:36:21;;;;;;;11.00;9.90;;;5.80;59.00;;;;;;4954568;29;20498;-84
2021/11/19 08:38:47;;;;;;;10.73;9.83;;;5.80;59.70;;;;;;4953977;29;20439;-84
2021/11/19 08:41:15;;;;;;;11.37;10.23;;;5.80;60.00;;;;;;4954390;29;20451;-82
2021/11/19 08:43:43;;;;;;;12.13;10.70;;;5.80;58.50;;;;;;4954294;29;20417;-84
2021/11/19 08:46:15;;;;;;;13.13;11.43;;;5.90;59.50;;;;;;4954162;29;20421;-84
2021/11/19 08:48:41;;;;;;;12.83;11.50;;;5.90;60.00;;;;;;4954104;29;20517;-82
2021/11/19 08:51:10;;;;;;;11.97;10.27;;;6.00;59.70;;;;;;4953969;29;20433;-83
2021/11/19 08:53:38;;;;;;;11.37;10.33;;;6.00;59.90;;;;;;4954075;29;20426;-82
2021/11/19 08:56:04;;;;;;;14.77;11.93;;;6.00;60.30;;;;;;4954721;29;20423;-83
2021/11/19 08:58:35;;;;;;;13.03;11.73;;;6.00;59.70;;;;;;4954051;28;20569;-83
2021/11/19 09:01:03;;;;;;;12.70;11.40;;;6.00;59.70;;;;;;4953921;29;20881;-83
2021/11/19 09:03:30;;;;;;;11.90;10.67;;;6.00;60.00;;;;;;4953920;29;20522;-82
2021/11/19 09:05:56;;;;;;;12.57;11.30;;;6.00;60.60;;;;;;4953541;29;20419;-83
2021/11/19 09:08:24;;;;;;;12.47;11.10;;;6.00;60.40;;;;;;4953497;29;20419;-84
2021/11/19 09:10:52;;;;;;;12.50;11.10;;;6.10;60.10;;;;;;4953697;29;20426;-83
2021/11/19 09:13:18;;;;;;;13.20;11.83;;;6.10;59.70;;;;;;4953478;29;20450;-83
2021/11/19 09:15:45;;;;;;;19.00;10.93;;;6.10;60.40;;;;;;4953512;29;20429;-82
2021/11/19 09:18:24;;;;;;;11.93;10.70;;;6.20;60.40;;;;;;4952960;29;20839;-83
2021/11/19 09:20:58;;;;;;;14.43;11.30;;;6.20;61.10;;;;;;4953509;29;20515;-83
2021/11/19 09:23:28;;;;;;;16.13;12.30;;;6.30;61.40;;;;;;4953446;29;20461;-84
2021/11/19 09:25:56;;;;;;;13.73;11.27;;;6.40;61.80;;;;;;4953764;29;20485;-84
2021/11/19 09:28:25;;;;;;;16.50;11.53;;;6.40;61.20;;;;;;4953456;29;20435;-86
2021/11/19 09:30:56;;;;;;;15.90;13.00;;;6.40;61.90;;;;;;4953529;29;20423;-86
2021/11/19 09:33:24;;;;;;;16.47;12.90;;;6.40;62.20;;;;;;4953926;29;20526;-84
2021/11/19 09:35:50;;;;;;;17.10;12.10;;;6.40;62.30;;;;;;4953660;29;20839;-85
2021/11/19 09:38:19;;;;;;;16.17;13.73;;;6.40;63.40;;;;;;4953448;29;20498;-85
2021/11/19 09:40:49;;;;;;;18.30;13.43;;;6.50;63.90;;;;;;4953850;29;20502;-85
2021/11/19 09:43:43;;;;;;;19.63;13.07;;;6.60;63.40;;;;;;4953303;29;20423;-84
2021/11/19 09:46:12;;;;;;;15.40;12.20;;;6.50;63.20;;;;;;4953157;28;20458;-84
2021/11/19 09:48:40;;;;;;;16.00;12.53;;;6.40;62.40;;;;;;4953050;29;20424;-84
2021/11/19 09:51:55;;;;;;;18.70;13.00;;;6.50;63.20;;;;;;4953405;29;20875;-84
2021/11/19 09:54:43;;;;;;;18.10;12.90;;;6.50;62.90;;;;;;4953584;29;20521;-84
2021/11/19 09:57:11;;;;;;;16.70;14.90;;;6.50;62.20;;;;;;4953243;29;20475;-84
2021/11/19 09:59:45;;;;;;;18.77;13.50;;;6.40;62.20;;;;;;4953199;29;20459;-85
2021/11/19 10:02:49;;;;;;;16.20;13.93;;;6.40;61.80;;;;;;4953197;29;20915;-84
2021/11/19 10:05:23;;;;;;;17.77;13.63;;;6.50;62.10;;;;;;4953061;29;20463;-84
2021/11/19 10:08:01;;;;;;;14.90;13.40;;;6.60;61.50;;;;;;4953117;29;20452;-85
2021/11/19 10:11:04;;;;;;;19.50;14.27;;;6.50;61.40;;;;;;4953080;28;20410;-84
2021/11/19 10:14:06;;;;;;;20.07;14.00;;;6.60;62.60;;;;;;4957498;29;20429;-84
2021/11/19 10:16:52;;;;;;;20.47;14.03;;;6.70;61.10;;;;;;4957045;29;20429;-85
2021/11/19 10:19:21;;;;;;;15.90;13.77;;;6.70;61.70;;;;;;4957349;29;20418;-85
2021/11/19 10:21:59;;;;;;;15.80;14.00;;;6.70;61.80;;;;;;4956872;29;20437;-84
2021/11/19 10:24:36;;;;;;;20.77;15.83;;;6.70;62.40;;;;;;4957133;29;20421;-85
2021/11/19 10:27:06;;;;;;;20.30;14.73;;;6.70;61.70;;;;;;4957080;29;20434;-85
2021/11/19 10:29:42;;;;;;;17.27;15.40;;;6.80;61.60;;;;;;4958668;28;20407;-84
2021/11/19 10:32:11;;;;;;;17.33;14.53;;;6.80;61.10;;;;;;4957159;29;20425;-83
2021/11/19 10:35:12;;;;;;;19.43;14.40;;;6.80;60.50;;;;;;4956879;29;20434;-84
2021/11/19 10:37:53;;;;;;;17.73;15.83;;;6.80;61.60;;;;;;4936000;29;20478;-84
2021/11/19 10:41:17;;;;;;;20.40;15.87;;;6.70;62.10;;;;;;4957574;29;20795;-85
2021/11/19 10:44:08;;;;;;;20.90;15.90;;;6.70;62.50;;;;;;4941404;29;20427;-84
2021/11/19 10:47:05;;;;;;;20.97;17.37;;;6.50;62.60;;;;;;4958180;28;20429;-84
2021/11/19 10:49:57;;;;;;;21.77;16.73;;;6.60;61.90;;;;;;4956753;28;20453;-84
2021/11/19 10:52:54;;;;;;;20.43;17.20;;;6.80;61.80;;;;;;4956118;29;20412;-84
2021/11/19 10:56:01;;;;;;;19.37;15.93;;;6.70;61.30;;;;;;4956068;28;20482;-84
2021/11/19 10:58:47;;;;;;;20.93;16.40;;;6.80;60.90;;;;;;4934320;29;20490;-83
2021/11/19 11:01:44;;;;;;;21.83;16.83;;;6.80;61.00;;;;;;4956166;29;20431;-85
2021/11/19 11:04:20;;;;;;;20.87;15.17;;;6.90;60.60;;;;;;4956057;29;20423;-84
2021/11/19 11:06:52;;;;;;;18.30;15.67;;;6.80;59.80;;;;;;4956042;29;20427;-84
2021/11/19 11:09:24;;;;;;;23.60;16.03;;;6.90;60.50;;;;;;4957327;28;20477;-84
2021/11/19 11:12:08;;;;;;;24.03;15.83;;;7.00;60.60;;;;;;4957619;28;20418;-83
2021/11/19 11:14:38;;;;;;;19.77;16.37;;;6.90;60.00;;;;;;4954392;28;20429;-85
2021/11/19 11:17:25;;;;;;;20.40;15.70;;;7.00;60.90;;;;;;4954713;29;20528;-85
2021/11/19 11:19:55;;;;;;;17.73;15.43;;;7.00;60.10;;;;;;4954796;29;20846;-84
2021/11/19 11:22:30;;;;;;;17.90;16.10;;;7.00;59.80;;;;;;4953100;28;20431;-84
2021/11/19 11:24:58;;;;;;;17.10;15.30;;;7.00;60.00;;;;;;4954514;29;20438;-84
2021/11/19 11:27:55;;;;;;;17.80;15.90;;;7.00;59.80;;;;;;4954520;29;20422;-87
2021/11/19 11:30:46;;;;;;;20.37;16.90;;;7.10;60.20;;;;;;4954479;29;20908;-88
2021/11/19 11:33:20;;;;;;;18.30;16.40;;;7.10;59.60;;;;;;4963730;28;20422;-92
2021/11/19 11:35:46;;;;;;;18.57;16.53;;;7.00;59.80;;;;;;4966186;29;20411;-91
2021/11/19 11:38:30;;;;;;;20.27;15.53;;;7.00;59.40;;;;;;4965455;29;20482;-92
2021/11/19 11:41:31;;;;;;;18.77;15.53;;;6.90;60.10;;;;;;4964610;29;20187;-91
2021/11/19 11:44:15;;;;;;;17.97;15.90;;;7.00;60.70;;;;;;4971342;28;20423;-92
2021/11/19 11:46:47;;;;;;;17.50;14.97;;;7.20;60.40;;;;;;4962436;29;20423;-87
2021/11/19 11:49:45;;;;;;;17.03;14.77;;;7.20;60.10;;;;;;4956848;29;20447;-90
2021/11/19 11:52:38;;;;;;;18.63;13.40;;;7.20;59.90;;;;;;4956526;29;20616;-91
2021/11/19 11:55:15;;;;;;;14.40;11.63;;;7.20;60.70;;;;;;4955871;29;20418;-91
2021/11/19 11:57:47;;;;;;;16.57;13.87;;;7.10;61.10;;;;;;4954817;29;20463;-92
2021/11/19 12:00:25;;;;;;;20.73;13.50;;;7.20;61.20;;;;;;4956271;29;20510;-92
2021/11/19 12:03:17;;;;;;;17.13;13.33;;;7.20;60.70;;;;;;4958270;29;20417;-91
2021/11/19 12:05:54;;;;;;;14.87;12.70;;;7.10;61.60;;;;;;4972417;28;20797;-90
2021/11/19 12:08:55;;;;;;;15.60;13.73;;;7.00;61.80;;;;;;4971266;28;20443;-91
2021/11/19 12:11:58;;;;;;;21.23;13.53;;;7.10;61.20;;;;;;4901833;29;20945;-90
2021/11/19 12:15:02;;;;;;;17.23;14.20;;;7.10;61.60;;;;;;4975423;28;20517;-92
2021/11/19 12:17:34;;;;;;;15.33;13.33;;;7.00;61.80;;;;;;4931605;28;20468;-85
2021/11/19 12:20:45;;;;;;;15.67;14.00;;;7.00;61.40;;;;;;4953496;29;20491;-84
2021/11/19 12:23:23;;;;;;;20.40;14.57;;;7.20;61.20;;;;;;4968759;28;20528;-85
2021/11/19 12:26:24;;;;;;;20.73;15.03;;;7.10;61.50;;;;;;4980485;28;20427;-83
2021/11/19 12:29:00;;;;;;;14.87;13.33;;;7.10;61.40;;;;;;4977562;28;20424;-92
2021/11/19 12:32:10;;;;;;;16.80;12.70;;;7.10;61.00;;;;;;4976100;28;20421;-92
2021/11/19 12:34:41;;;;;;;15.70;14.10;;;7.10;61.80;;;;;;4971363;28;20465;-93
2021/11/19 12:37:12;;;;;;;15.37;13.27;;;7.10;61.80;;;;;;4975115;28;20504;-93
2021/11/19 12:39:42;;;;;;;16.30;12.40;;;7.00;61.70;;;;;;4975127;28;20467;-93
2021/11/19 12:42:19;;;;;;;16.30;11.70;;;7.00;61.80;;;;;;4976025;28;20424;-93
2021/11/19 12:45:07;;;;;;;13.07;10.37;;;7.10;61.30;;;;;;4975302;28;20446;-94
2021/11/19 12:48:05;;;;;;;13.97;10.63;;;7.00;61.70;;;;;;4975380;28;20423;-93
2021/11/19 12:51:06;;;;;;;14.60;11.07;;;7.00;61.10;;;;;;4943578;28;20432;-94
2021/11/19 12:53:49;;;;;;;17.00;10.87;;;7.00;62.00;;;;;;4965654;28;20429;-92
2021/11/19 12:56:21;;;;;;;13.20;11.70;;;7.00;61.80;;;;;;4977328;28;20437;-92
2021/11/19 12:59:13;;;;;;;12.77;10.87;;;7.10;62.00;;;;;;4975296;28;20470;-92
2021/11/19 13:02:13;;;;;;;17.00;11.83;;;7.20;61.00;;;;;;4965683;28;20438;-83
2021/11/19 13:05:04;;;;;;;12.43;10.97;;;7.10;61.30;;;;;;4971860;28;20534;-83
2021/11/19 13:07:45;;;;;;;13.60;11.40;;;7.10;61.50;;;;;;4971939;28;20440;-83
2021/11/19 13:10:36;;;;;;;15.77;10.13;;;7.20;61.80;;;;;;4971800;28;20461;-83
2021/11/19 13:13:28;;;;;;;17.00;13.07;;;7.20;61.00;;;;;;4971724;28;20480;-84